createdAt,value
2019-05-18T00:01:16.185Z,53.05
2019-05-18T00:03:44.973Z,48.50
2019-05-18T00:06:13.667Z,53.25
2019-05-18T00:08:42.364Z,54.35
2019-05-18T00:11:11.041Z,52.43
2019-05-18T00:13:39.703Z,54.50
2019-05-18T00:16:08.535Z,52.90
2019-05-18T00:18:37.295Z,59.27
2019-05-18T00:21:05.985Z,54.27
2019-05-18T00:23:34.665Z,49.63
2019-05-18T00:26:03.502Z,51.53
2019-05-18T00:28:32.184Z,58.17
2019-05-18T00:31:00.897Z,70.50
2019-05-18T00:33:29.602Z,60.65
2019-05-18T00:35:58.286Z,72.30
2019-05-18T00:38:26.985Z,69.27
2019-05-18T00:40:55.674Z,56.70
2019-05-18T00:43:24.374Z,66.80
2019-05-18T00:45:53.073Z,65.52
2019-05-18T00:48:21.745Z,68.37
2019-05-18T00:50:50.443Z,68.05
2019-05-18T00:53:19.100Z,69.72
2019-05-18T00:55:47.815Z,63.50
2019-05-18T00:58:16.485Z,65.70
2019-05-18T01:00:45.159Z,62.38
2019-05-18T01:03:13.939Z,62.48
2019-05-18T01:05:42.622Z,63.98
2019-05-18T01:08:11.287Z,58.15
2019-05-18T01:10:39.980Z,69.62
2019-05-18T01:13:08.646Z,66.60
2019-05-18T01:15:37.320Z,66.17
2019-05-18T01:18:06.989Z,61.40
2019-05-18T01:20:37.930Z,78.42
2019-05-18T01:23:11.802Z,75.32
2019-05-18T01:25:40.582Z,69.37
2019-05-18T01:28:09.316Z,74.12
2019-05-18T01:30:38.096Z,71.40
2019-05-18T01:33:06.835Z,69.47
2019-05-18T01:35:35.499Z,58.40
2019-05-18T01:38:04.333Z,78.80
2019-05-18T01:40:33.002Z,63.33
2019-05-18T01:43:01.693Z,78.30
2019-05-18T01:45:30.361Z,62.78
2019-05-18T01:48:12.629Z,59.03
2019-05-18T01:50:29.437Z,74.75
2019-05-18T01:52:58.248Z,85.77
2019-05-18T01:55:26.913Z,85.65
2019-05-18T01:57:55.574Z,83.17
2019-05-18T02:00:24.610Z,81.87
2019-05-18T02:02:53.280Z,83.82
2019-05-18T02:05:21.972Z,91.95
2019-05-18T02:07:50.830Z,74.65
2019-05-18T02:10:19.702Z,86.80
2019-05-18T02:12:48.359Z,93.12
2019-05-18T02:15:17.295Z,84.15
2019-05-18T02:17:45.955Z,79.37
2019-05-18T02:20:14.980Z,93.72
2019-05-18T02:22:43.650Z,95.45
2019-05-18T02:25:12.688Z,85.22
2019-05-18T02:27:41.374Z,80.35
2019-05-18T02:30:11.204Z,65.25
2019-05-18T02:32:39.892Z,81.80
2019-05-18T02:35:09.404Z,75.35
2019-05-18T02:37:38.099Z,69.40
2019-05-18T02:40:07.139Z,74.20
2019-05-18T02:42:35.867Z,74.62
2019-05-18T02:45:04.846Z,88.35
2019-05-18T02:47:33.668Z,77.00
2019-05-18T02:50:02.357Z,76.67
2019-05-18T02:52:31.037Z,83.92
2019-05-18T02:54:59.719Z,92.22
2019-05-18T02:57:28.895Z,92.33
2019-05-18T02:59:57.645Z,94.05
2019-05-18T03:02:26.351Z,85.67
2019-05-18T03:04:55.529Z,87.12
2019-05-18T03:07:24.201Z,81.80
2019-05-18T03:09:52.964Z,90.83
2019-05-18T03:12:21.663Z,94.10
2019-05-18T03:14:50.501Z,103.22
2019-05-18T03:17:19.191Z,95.62
2019-05-18T03:19:47.961Z,108.72
2019-05-18T03:22:16.630Z,109.83
2019-05-18T03:24:45.326Z,140.62
2019-05-18T03:27:14.007Z,125.00
2019-05-18T03:29:42.707Z,122.28
2019-05-18T03:32:11.667Z,103.22
2019-05-18T03:34:40.339Z,547.02
2019-05-18T03:37:09.027Z,141.62
2019-05-18T03:39:37.711Z,171.43
2019-05-18T03:42:06.476Z,127.90
2019-05-18T03:44:35.157Z,180.75
2019-05-18T03:47:03.842Z,143.85
2019-05-18T03:49:32.535Z,133.57
2019-05-18T03:52:01.233Z,236.43
2019-05-18T03:54:29.902Z,282.27
2019-05-18T03:56:58.585Z,173.87
2019-05-18T03:59:27.297Z,497.52
2019-05-18T04:01:55.964Z,387.12
2019-05-18T04:04:24.674Z,374.65
2019-05-18T04:06:53.407Z,340.37
2019-05-18T04:09:22.586Z,281.08
2019-05-18T04:11:51.348Z,303.07
2019-05-18T04:14:20.008Z,491.60
2019-05-18T04:16:48.705Z,387.88
2019-05-18T04:19:17.393Z,177.17
2019-05-18T04:21:46.098Z,153.50
2019-05-18T04:24:14.773Z,244.68
2019-05-18T04:26:43.435Z,173.85
2019-05-18T04:29:12.431Z,117.17
2019-05-18T04:31:41.114Z,124.15
2019-05-18T04:34:09.777Z,319.30
2019-05-18T04:36:38.484Z,173.85
2019-05-18T04:39:07.359Z,193.62
2019-05-18T04:41:36.023Z,313.82
2019-05-18T04:44:04.722Z,107.15
2019-05-18T04:46:33.412Z,106.60
2019-05-18T04:49:02.142Z,237.17
2019-05-18T04:51:30.807Z,108.12
2019-05-18T04:53:59.482Z,83.03
2019-05-18T04:56:28.167Z,94.62
2019-05-18T04:58:56.829Z,81.17
2019-05-18T05:01:25.498Z,59.15
2019-05-18T05:03:54.190Z,51.88
2019-05-18T05:06:23.134Z,52.73
2019-05-18T05:08:51.825Z,48.75
2019-05-18T05:11:20.489Z,49.83
2019-05-18T05:13:49.151Z,44.60
2019-05-18T05:16:17.828Z,52.10
2019-05-18T05:18:46.489Z,52.55
2019-05-18T05:21:15.178Z,59.38
2019-05-18T05:23:43.841Z,42.08
2019-05-18T05:26:12.528Z,43.85
2019-05-18T05:28:41.210Z,47.00
2019-05-18T05:31:09.884Z,46.83
2019-05-18T05:33:38.587Z,49.08
2019-05-18T05:36:07.642Z,59.95
2019-05-18T05:38:36.301Z,62.35
2019-05-18T05:41:04.993Z,71.87
2019-05-18T05:43:33.738Z,57.10
2019-05-18T05:46:02.428Z,46.25
2019-05-18T05:48:31.091Z,59.20
2019-05-18T05:50:59.788Z,49.53
2019-05-18T05:53:28.449Z,52.85
2019-05-18T05:55:57.145Z,41.13
2019-05-18T05:58:25.845Z,51.02
2019-05-18T06:00:54.542Z,42.10
2019-05-18T06:03:23.237Z,45.43
2019-05-18T06:05:51.898Z,39.80
2019-05-18T06:08:20.574Z,34.23
2019-05-18T06:10:49.262Z,36.95
2019-05-18T06:13:17.928Z,33.13
2019-05-18T06:15:46.608Z,29.87
2019-05-18T06:18:15.265Z,35.00
2019-05-18T06:20:51.611Z,30.17
2019-05-18T06:23:14.329Z,34.23
2019-05-18T06:25:43.006Z,31.60
2019-05-18T06:28:11.666Z,35.00
2019-05-18T06:30:40.373Z,33.30
2019-05-18T06:33:09.051Z,30.43
2019-05-18T06:35:37.708Z,30.25
2019-05-18T06:38:06.398Z,28.85
2019-05-18T06:40:35.087Z,29.15
2019-05-18T06:43:03.771Z,28.77
2019-05-18T06:45:32.430Z,30.52
2019-05-18T06:48:01.120Z,27.60
2019-05-18T06:50:30.659Z,27.32
2019-05-18T06:52:59.585Z,34.03
2019-05-18T06:55:28.423Z,27.62
2019-05-18T06:57:58.443Z,25.88
2019-05-18T07:00:27.593Z,26.50
2019-05-18T07:02:56.257Z,28.23
2019-05-18T07:05:24.934Z,26.87
2019-05-18T07:07:53.615Z,24.90
2019-05-18T07:10:22.283Z,24.52
2019-05-18T07:12:50.993Z,21.05
2019-05-18T07:15:20.302Z,21.10
2019-05-18T07:17:48.956Z,19.77
2019-05-18T07:20:18.408Z,19.27
2019-05-18T07:22:47.185Z,20.77
2019-05-18T07:25:17.004Z,20.50
2019-05-18T07:27:45.687Z,18.87
2019-05-18T07:30:15.202Z,21.40
2019-05-18T07:32:43.899Z,19.87
2019-05-18T07:35:12.956Z,17.90
2019-05-18T07:37:41.623Z,18.00
2019-05-18T07:40:11.458Z,16.97
2019-05-18T07:42:40.164Z,17.40
2019-05-18T07:45:09.369Z,16.42
2019-05-18T07:47:38.034Z,15.25
2019-05-18T07:50:07.375Z,18.40
2019-05-18T07:52:36.135Z,13.45
2019-05-18T07:55:05.025Z,15.55
2019-05-18T07:57:33.714Z,15.18
2019-05-18T08:00:02.391Z,15.18
2019-05-18T08:02:31.058Z,13.93
2019-05-18T08:04:59.742Z,15.08
2019-05-18T08:07:28.410Z,13.43
2019-05-18T08:09:57.114Z,10.30
2019-05-18T08:12:25.809Z,11.70
2019-05-18T08:14:54.544Z,11.97
2019-05-18T08:17:23.321Z,11.38
2019-05-18T08:19:51.989Z,17.92
2019-05-18T08:22:20.663Z,13.28
2019-05-18T08:24:49.357Z,12.40
2019-05-18T08:27:18.011Z,9.25
2019-05-18T08:29:46.718Z,9.48
2019-05-18T08:32:15.486Z,8.10
2019-05-18T08:34:44.156Z,7.55
2019-05-18T08:37:12.845Z,8.70
2019-05-18T08:39:41.499Z,9.53
2019-05-18T08:42:10.171Z,10.48
2019-05-18T08:44:38.844Z,9.10
2019-05-18T08:47:07.523Z,7.58
2019-05-18T08:49:36.179Z,9.08
2019-05-18T08:52:08.486Z,8.73
2019-05-18T08:54:35.316Z,7.22
2019-05-18T08:57:04.055Z,5.97
2019-05-18T08:59:32.735Z,7.30
2019-05-18T09:02:01.382Z,5.97
2019-05-18T09:04:30.538Z,5.33
2019-05-18T09:06:59.212Z,5.25
2019-05-18T09:09:27.874Z,5.67
2019-05-18T09:11:56.547Z,5.28
2019-05-18T09:14:25.232Z,5.22
2019-05-18T09:16:53.916Z,5.03
2019-05-18T09:19:22.568Z,5.90
2019-05-18T09:21:51.228Z,5.42
2019-05-18T09:24:19.917Z,5.78
2019-05-18T09:26:48.566Z,5.33
2019-05-18T09:29:17.241Z,4.45
2019-05-18T09:31:45.900Z,4.30
2019-05-18T09:34:14.583Z,4.50
2019-05-18T09:36:43.252Z,4.45
2019-05-18T09:39:11.930Z,6.95
2019-05-18T09:41:40.585Z,4.42
2019-05-18T09:44:09.282Z,5.03
2019-05-18T09:46:37.940Z,6.87
2019-05-18T09:49:06.591Z,5.10
2019-05-18T09:51:35.266Z,4.30
2019-05-18T09:54:04.061Z,4.20
2019-05-18T09:56:32.743Z,6.67
2019-05-18T09:59:01.497Z,5.25
2019-05-18T10:01:30.257Z,4.35
2019-05-18T10:03:58.922Z,4.15
2019-05-18T10:06:27.573Z,4.72
2019-05-18T10:08:56.246Z,6.00
2019-05-18T10:11:25.024Z,4.97
2019-05-18T10:13:53.697Z,5.15
2019-05-18T10:16:22.351Z,5.47
2019-05-18T10:18:51.019Z,5.03
2019-05-18T10:21:19.704Z,5.03
2019-05-18T10:23:48.367Z,6.37
2019-05-18T10:26:17.042Z,4.92
2019-05-18T10:28:45.730Z,6.55
2019-05-18T10:31:14.486Z,5.65
2019-05-18T10:33:43.155Z,6.08
2019-05-18T10:36:11.968Z,6.08
2019-05-18T10:38:40.705Z,5.97
2019-05-18T10:41:09.352Z,5.97
2019-05-18T10:43:38.112Z,5.65
2019-05-18T10:46:06.856Z,5.00
2019-05-18T10:48:35.509Z,5.80
2019-05-18T10:51:05.707Z,5.40
2019-05-18T10:53:34.535Z,5.28
2019-05-18T10:56:03.207Z,5.35
2019-05-18T10:58:31.866Z,4.92
2019-05-18T11:01:00.517Z,4.95
2019-05-18T11:03:29.187Z,5.12
2019-05-18T11:05:57.839Z,4.95
2019-05-18T11:08:26.517Z,5.45
2019-05-18T11:10:55.200Z,4.55
2019-05-18T11:13:23.852Z,5.87
2019-05-18T11:15:52.502Z,5.08
2019-05-18T11:18:21.176Z,5.42
2019-05-18T11:20:49.833Z,4.85
2019-05-18T11:23:18.517Z,6.28
2019-05-18T11:25:47.192Z,5.65
2019-05-18T11:28:15.852Z,5.85
2019-05-18T11:30:44.541Z,5.33
2019-05-18T11:33:13.342Z,5.03
2019-05-18T11:35:42.069Z,6.75
2019-05-18T11:38:10.718Z,5.35
2019-05-18T11:40:39.394Z,5.33
2019-05-18T11:43:08.064Z,5.72
2019-05-18T11:45:36.759Z,6.05
2019-05-18T11:48:05.506Z,5.30
2019-05-18T11:50:34.221Z,5.17
2019-05-18T11:53:02.916Z,5.20
2019-05-18T11:55:31.565Z,6.22
2019-05-18T11:58:00.234Z,4.70
2019-05-18T12:00:29.438Z,5.97
2019-05-18T12:02:58.121Z,5.72
2019-05-18T12:05:26.811Z,5.10
2019-05-18T12:07:55.472Z,6.17
2019-05-18T12:10:24.220Z,4.62
2019-05-18T12:12:52.925Z,5.47
2019-05-18T12:15:22.026Z,5.83
2019-05-18T12:17:50.758Z,6.33
2019-05-18T12:20:20.881Z,5.17
2019-05-18T12:22:49.533Z,4.92
2019-05-18T12:25:18.360Z,5.20
2019-05-18T12:27:47.053Z,4.95
2019-05-18T12:30:17.444Z,4.25
2019-05-18T12:32:46.119Z,5.40
2019-05-18T12:35:14.921Z,5.42
2019-05-18T12:37:43.616Z,5.08
2019-05-18T12:40:15.857Z,4.70
2019-05-18T12:42:44.508Z,4.97
2019-05-18T12:45:13.926Z,4.83
2019-05-18T12:47:42.580Z,4.67
2019-05-18T12:50:11.618Z,4.50
2019-05-18T12:52:40.424Z,4.50
2019-05-18T12:55:09.935Z,5.35
2019-05-18T12:57:38.629Z,5.12
2019-05-18T13:00:07.733Z,4.50
2019-05-18T13:02:36.391Z,4.87
2019-05-18T13:05:05.672Z,4.28
2019-05-18T13:07:34.427Z,3.77
2019-05-18T13:10:03.165Z,4.90
2019-05-18T13:12:31.828Z,4.40
2019-05-18T13:15:00.473Z,4.80
2019-05-18T13:17:29.147Z,7.17
2019-05-18T13:19:57.832Z,4.33
2019-05-18T13:22:26.493Z,4.67
2019-05-18T13:24:55.138Z,6.80
2019-05-18T13:27:38.434Z,8.35
2019-05-18T13:29:54.198Z,4.83
2019-05-18T13:32:22.851Z,4.30
2019-05-18T13:34:51.531Z,4.22
2019-05-18T13:37:20.194Z,3.95
2019-05-18T13:39:48.874Z,3.77
2019-05-18T13:42:17.531Z,3.77
2019-05-18T13:44:46.199Z,3.72
2019-05-18T13:47:14.859Z,4.17
2019-05-18T13:49:43.544Z,4.30
2019-05-18T13:52:12.214Z,3.90
2019-05-18T13:54:40.881Z,4.37
2019-05-18T13:57:09.552Z,3.75
2019-05-18T13:59:38.243Z,5.42
2019-05-18T14:02:07.174Z,3.55
2019-05-18T14:04:35.838Z,4.30
2019-05-18T14:07:04.633Z,4.53
2019-05-18T14:09:33.316Z,3.55
2019-05-18T14:12:01.962Z,3.33
2019-05-18T14:14:30.660Z,3.70
2019-05-18T14:16:59.306Z,3.72
2019-05-18T14:19:27.982Z,4.95
2019-05-18T14:21:56.636Z,4.40
2019-05-18T14:24:25.317Z,4.45
2019-05-18T14:26:53.975Z,5.05
2019-05-18T14:29:22.625Z,5.35
2019-05-18T14:31:51.305Z,4.62
2019-05-18T14:34:19.964Z,5.05
2019-05-18T14:36:48.653Z,5.20
2019-05-18T14:39:17.395Z,4.87
2019-05-18T14:41:46.089Z,5.65
2019-05-18T14:44:14.743Z,5.25
2019-05-18T14:46:43.412Z,4.55
2019-05-18T14:49:12.156Z,5.60
2019-05-18T14:51:40.819Z,5.70
2019-05-18T14:54:09.575Z,4.00
2019-05-18T14:56:38.237Z,3.55
2019-05-18T14:59:06.919Z,4.30
2019-05-18T15:01:35.601Z,3.50
2019-05-18T15:04:04.259Z,4.28
2019-05-18T15:06:32.927Z,3.55
2019-05-18T15:09:01.605Z,4.03
2019-05-18T15:11:30.271Z,4.10
2019-05-18T15:13:58.950Z,4.83
2019-05-18T15:16:27.598Z,4.35
2019-05-18T15:18:56.252Z,4.05
2019-05-18T15:21:25.771Z,3.75
2019-05-18T15:23:54.438Z,4.00
2019-05-18T15:26:23.091Z,3.75
2019-05-18T15:28:51.765Z,4.28
2019-05-18T15:31:23.712Z,4.10
2019-05-18T15:33:50.847Z,4.40
2019-05-18T15:36:19.526Z,4.05
2019-05-18T15:38:48.214Z,3.33
2019-05-18T15:41:17.668Z,4.08
2019-05-18T15:43:46.351Z,3.47
2019-05-18T15:46:14.993Z,3.70
2019-05-18T15:48:43.713Z,4.03
2019-05-18T15:51:12.355Z,4.25
2019-05-18T15:53:41.009Z,3.22
2019-05-18T15:56:09.702Z,3.92
2019-05-18T15:58:38.461Z,4.08
2019-05-18T16:01:07.270Z,3.95
2019-05-18T16:03:35.924Z,3.75
2019-05-18T16:06:06.067Z,3.90
2019-05-18T16:08:34.796Z,5.33
2019-05-18T16:11:03.486Z,4.65
2019-05-18T16:13:32.144Z,9.50
2019-05-18T16:16:00.927Z,5.15
2019-05-18T16:18:29.556Z,3.70
2019-05-18T16:20:58.216Z,3.58
2019-05-18T16:23:26.875Z,4.60
2019-05-18T16:25:55.558Z,3.62
2019-05-18T16:28:24.216Z,3.77
2019-05-18T16:30:52.938Z,3.83
2019-05-18T16:33:21.611Z,4.53
2019-05-18T16:35:50.272Z,4.12
2019-05-18T16:38:18.962Z,5.80
2019-05-18T16:40:47.621Z,5.15
2019-05-18T16:43:16.291Z,4.30
2019-05-18T16:45:44.949Z,4.78
2019-05-18T16:48:13.628Z,6.58
2019-05-18T16:50:42.292Z,4.55
2019-05-18T16:53:10.971Z,3.92
2019-05-18T16:55:39.715Z,4.60
2019-05-18T16:58:08.397Z,4.03
2019-05-18T17:00:37.074Z,4.53
2019-05-18T17:03:05.769Z,4.22
2019-05-18T17:05:34.455Z,4.50
2019-05-18T17:08:03.126Z,5.33
2019-05-18T17:10:31.775Z,4.22
2019-05-18T17:13:00.459Z,4.17
2019-05-18T17:15:29.142Z,4.78
2019-05-18T17:17:57.776Z,5.85
2019-05-18T17:20:26.460Z,5.45
2019-05-18T17:22:55.150Z,3.95
2019-05-18T17:25:23.858Z,4.58
2019-05-18T17:27:52.522Z,7.55
2019-05-18T17:30:21.722Z,4.35
2019-05-18T17:32:50.403Z,4.67
2019-05-18T17:35:19.062Z,4.92
2019-05-18T17:37:47.720Z,4.83
2019-05-18T17:40:16.678Z,4.70
2019-05-18T17:42:45.340Z,4.85
2019-05-18T17:45:14.163Z,5.20
2019-05-18T17:47:42.844Z,4.75
2019-05-18T17:50:12.242Z,5.12
2019-05-18T17:52:40.904Z,4.95
2019-05-18T17:55:09.734Z,5.37
2019-05-18T17:57:38.459Z,5.80
2019-05-18T18:00:07.540Z,8.10
2019-05-18T18:02:36.192Z,6.25
2019-05-18T18:05:05.171Z,6.15
2019-05-18T18:07:33.844Z,5.15
2019-05-18T18:10:02.604Z,5.42
2019-05-18T18:12:31.245Z,6.10
2019-05-18T18:14:59.909Z,5.90
2019-05-18T18:17:28.578Z,6.40
2019-05-18T18:19:57.231Z,5.85
2019-05-18T18:22:25.889Z,7.28
2019-05-18T18:24:54.556Z,7.45
2019-05-18T18:27:25.861Z,7.25
2019-05-18T18:29:53.827Z,6.50
2019-05-18T18:32:22.495Z,6.47
2019-05-18T18:34:51.188Z,5.95
2019-05-18T18:37:19.853Z,5.40
2019-05-18T18:39:48.514Z,5.58
2019-05-18T18:42:17.223Z,6.03
2019-05-18T18:44:45.872Z,5.45
2019-05-18T18:47:14.640Z,6.20
2019-05-18T18:49:43.288Z,7.22
2019-05-18T18:52:12.011Z,6.70
2019-05-18T18:54:40.688Z,6.12
2019-05-18T18:57:09.338Z,7.25
2019-05-18T18:59:37.987Z,6.15
2019-05-18T19:02:06.749Z,7.10
2019-05-18T19:04:35.401Z,7.65
2019-05-18T19:07:04.121Z,9.05
2019-05-18T19:09:32.803Z,7.70
2019-05-18T19:12:01.463Z,6.78
2019-05-18T19:14:30.683Z,6.97
2019-05-18T19:16:59.365Z,6.67
2019-05-18T19:19:28.017Z,7.58
2019-05-18T19:21:56.692Z,8.03
2019-05-18T19:24:25.385Z,7.53
2019-05-18T19:26:54.060Z,8.63
2019-05-18T19:29:22.690Z,7.20
2019-05-18T19:31:51.364Z,7.60
2019-05-18T19:34:20.023Z,7.83
2019-05-18T19:36:48.717Z,9.13
2019-05-18T19:39:17.377Z,7.60
2019-05-18T19:41:46.046Z,8.30
2019-05-18T19:44:14.722Z,7.67
2019-05-18T19:46:43.408Z,7.80
2019-05-18T19:49:12.072Z,8.48
2019-05-18T19:51:40.759Z,8.33
2019-05-18T19:54:09.521Z,8.70
2019-05-18T19:56:41.172Z,9.30
2019-05-18T19:59:08.590Z,8.75
2019-05-18T20:01:37.284Z,8.68
2019-05-18T20:04:06.218Z,9.00
2019-05-18T20:06:34.869Z,10.28
2019-05-18T20:09:04.662Z,9.73
2019-05-18T20:11:33.325Z,13.20
2019-05-18T20:14:02.086Z,9.73
2019-05-18T20:16:30.822Z,10.25
2019-05-18T20:18:59.457Z,9.20
2019-05-18T20:21:28.237Z,10.78
2019-05-18T20:23:56.885Z,10.00
2019-05-18T20:26:25.558Z,10.55
2019-05-18T20:28:56.627Z,10.58
2019-05-18T20:31:24.602Z,11.05
2019-05-18T20:33:53.297Z,11.60
2019-05-18T20:36:21.960Z,11.22
2019-05-18T20:38:50.635Z,11.08
2019-05-18T20:41:19.338Z,11.85
2019-05-18T20:43:48.007Z,11.60
2019-05-18T20:46:16.685Z,12.90
2019-05-18T20:48:45.342Z,12.28
2019-05-18T20:51:14.017Z,12.58
2019-05-18T20:53:42.672Z,12.10
2019-05-18T20:56:11.363Z,13.10
2019-05-18T20:58:40.899Z,14.63
2019-05-18T21:01:09.857Z,12.45
2019-05-18T21:03:38.530Z,13.30
2019-05-18T21:06:07.458Z,17.20
2019-05-18T21:08:36.160Z,15.48
2019-05-18T21:11:04.891Z,13.70
2019-05-18T21:13:33.549Z,15.20
2019-05-18T21:16:02.229Z,14.00
2019-05-18T21:18:30.914Z,15.35
2019-05-18T21:20:59.577Z,15.65
2019-05-18T21:23:28.582Z,13.95
2019-05-18T21:25:57.284Z,14.33
2019-05-18T21:28:26.138Z,14.68
2019-05-18T21:30:54.817Z,16.23
2019-05-18T21:33:23.484Z,14.75
2019-05-18T21:35:52.150Z,15.75
2019-05-18T21:38:20.836Z,18.87
2019-05-18T21:40:49.515Z,17.73
2019-05-18T21:43:18.197Z,18.12
2019-05-18T21:45:46.894Z,19.07
2019-05-18T21:48:15.589Z,20.57
2019-05-18T21:50:44.234Z,19.92
2019-05-18T21:53:12.925Z,18.12
2019-05-18T21:55:41.664Z,17.45
2019-05-18T21:58:12.273Z,18.20
2019-05-18T22:00:40.993Z,16.97
2019-05-18T22:03:09.681Z,15.90
2019-05-18T22:05:38.382Z,15.95
2019-05-18T22:08:07.050Z,15.72
2019-05-18T22:10:35.734Z,17.92
2019-05-18T22:13:04.476Z,18.20
2019-05-18T22:15:33.164Z,17.32
2019-05-18T22:18:04.907Z,15.78
2019-05-18T22:20:35.332Z,17.82
2019-05-18T22:23:04.683Z,22.48
2019-05-18T22:25:33.648Z,22.65
2019-05-18T22:28:02.419Z,25.17
2019-05-18T22:30:31.190Z,17.85
2019-05-18T22:32:59.848Z,14.98
2019-05-18T22:35:28.513Z,15.55
2019-05-18T22:37:57.202Z,17.23
2019-05-18T22:40:25.901Z,21.10
2019-05-18T22:42:54.574Z,20.30
2019-05-18T22:45:23.259Z,21.85
2019-05-18T22:47:51.965Z,22.05
2019-05-18T22:50:20.979Z,22.60
2019-05-18T22:52:49.665Z,28.25
2019-05-18T22:55:18.501Z,23.60
2019-05-18T22:57:47.206Z,22.85
2019-05-18T23:00:16.115Z,19.35
2019-05-18T23:02:44.795Z,21.62
2019-05-18T23:05:13.526Z,23.62
2019-05-18T23:07:42.214Z,21.48
2019-05-18T23:10:11.358Z,19.07
2019-05-18T23:12:40.037Z,23.85
2019-05-18T23:15:08.949Z,21.73
2019-05-18T23:17:37.636Z,18.82
2019-05-18T23:20:07.410Z,20.32
2019-05-18T23:22:36.104Z,18.35
2019-05-18T23:25:05.301Z,18.23
2019-05-18T23:27:34.003Z,16.82
2019-05-18T23:30:02.741Z,16.55
2019-05-18T23:32:31.432Z,18.15
2019-05-18T23:35:00.086Z,19.30
2019-05-18T23:37:28.796Z,19.05
2019-05-18T23:39:57.450Z,21.85
2019-05-18T23:42:26.135Z,21.97
2019-05-18T23:44:54.822Z,22.48
2019-05-18T23:47:23.566Z,22.40
2019-05-18T23:49:52.256Z,24.00
2019-05-18T23:52:20.947Z,25.45
2019-05-18T23:54:49.625Z,23.67
2019-05-18T23:57:18.292Z,20.35
2019-05-18T23:59:46.975Z,17.90
